sensor_id;sensor_type;location;lat;lon;timestamp;P1;durP1;ratioP1;P2;durP2;ratioP2
50056;SDS011;36875;49.468;11.200;2022-10-03T00:00:28;1.63;;;0.80;;
50056;SDS011;36875;49.468;11.200;2022-10-03T00:03:11;2.05;;;1.10;;
50056;SDS011;36875;49.468;11.200;2022-10-03T00:06:03;1.30;;;0.70;;
50056;SDS011;36875;49.468;11.200;2022-10-03T00:08:46;2.33;;;1.20;;
50056;SDS011;36875;49.468;11.200;2022-10-03T00:11:25;2.55;;;1.02;;
50056;SDS011;36875;49.468;11.200;2022-10-03T00:13:58;1.77;;;0.95;;
50056;SDS011;36875;49.468;11.200;2022-10-03T00:16:28;1.75;;;0.90;;
50056;SDS011;36875;49.468;11.200;2022-10-03T00:19:10;1.45;;;0.82;;
50056;SDS011;36875;49.468;11.200;2022-10-03T00:21:53;2.97;;;1.30;;
50056;SDS011;36875;49.468;11.200;2022-10-03T00:24:31;2.70;;;1.08;;
50056;SDS011;36875;49.468;11.200;2022-10-03T00:27:07;1.98;;;1.05;;
50056;SDS011;36875;49.468;11.200;2022-10-03T00:29:44;3.30;;;1.27;;
50056;SDS011;36875;49.468;11.200;2022-10-03T00:32:23;2.13;;;0.90;;
50056;SDS011;36875;49.468;11.200;2022-10-03T00:35:01;1.23;;;1.05;;
50056;SDS011;36875;49.468;11.200;2022-10-03T00:37:35;1.38;;;0.90;;
50056;SDS011;36875;49.468;11.200;2022-10-03T00:43:05;4.05;;;1.30;;
50056;SDS011;36875;49.468;11.200;2022-10-03T00:45:58;1.88;;;0.98;;
50056;SDS011;36875;49.468;11.200;2022-10-03T00:48:45;1.80;;;0.98;;
50056;SDS011;36875;49.468;11.200;2022-10-03T00:51:49;3.65;;;1.00;;
50056;SDS011;36875;49.468;11.200;2022-10-03T00:54:26;3.25;;;1.10;;
50056;SDS011;36875;49.468;11.200;2022-10-03T01:00:10;1.40;;;0.80;;
50056;SDS011;36875;49.468;11.200;2022-10-03T01:05:30;3.10;;;1.10;;
50056;SDS011;36875;49.468;11.200;2022-10-03T01:08:17;2.25;;;1.10;;
50056;SDS011;36875;49.468;11.200;2022-10-03T01:11:01;3.40;;;1.27;;
50056;SDS011;36875;49.468;11.200;2022-10-03T01:13:38;4.18;;;1.50;;
50056;SDS011;36875;49.468;11.200;2022-10-03T01:16:23;3.08;;;1.10;;
50056;SDS011;36875;49.468;11.200;2022-10-03T01:19:10;4.22;;;1.20;;
50056;SDS011;36875;49.468;11.200;2022-10-03T01:21:54;2.58;;;1.05;;
50056;SDS011;36875;49.468;11.200;2022-10-03T01:24:33;3.30;;;1.15;;
50056;SDS011;36875;49.468;11.200;2022-10-03T01:27:22;3.40;;;1.35;;
50056;SDS011;36875;49.468;11.200;2022-10-03T01:29:54;4.10;;;1.35;;
50056;SDS011;36875;49.468;11.200;2022-10-03T01:32:43;4.50;;;1.30;;
50056;SDS011;36875;49.468;11.200;2022-10-03T01:35:19;3.28;;;1.10;;
50056;SDS011;36875;49.468;11.200;2022-10-03T01:37:54;2.35;;;1.27;;
50056;SDS011;36875;49.468;11.200;2022-10-03T01:40:28;6.18;;;1.55;;
50056;SDS011;36875;49.468;11.200;2022-10-03T01:43:02;3.50;;;1.23;;
50056;SDS011;36875;49.468;11.200;2022-10-03T01:45:39;3.40;;;1.27;;
50056;SDS011;36875;49.468;11.200;2022-10-03T01:48:19;4.50;;;1.38;;
50056;SDS011;36875;49.468;11.200;2022-10-03T01:50:53;4.82;;;1.48;;
50056;SDS011;36875;49.468;11.200;2022-10-03T01:53:25;2.75;;;1.30;;
50056;SDS011;36875;49.468;11.200;2022-10-03T01:56:03;2.88;;;1.10;;
50056;SDS011;36875;49.468;11.200;2022-10-03T01:58:36;4.15;;;1.65;;
50056;SDS011;36875;49.468;11.200;2022-10-03T02:01:14;4.70;;;1.77;;
50056;SDS011;36875;49.468;11.200;2022-10-03T02:03:48;4.68;;;1.27;;
50056;SDS011;36875;49.468;11.200;2022-10-03T02:06:23;4.85;;;1.20;;
50056;SDS011;36875;49.468;11.200;2022-10-03T02:08:57;3.70;;;1.23;;
50056;SDS011;36875;49.468;11.200;2022-10-03T02:11:33;4.28;;;1.33;;
50056;SDS011;36875;49.468;11.200;2022-10-03T02:14:06;3.03;;;1.30;;
50056;SDS011;36875;49.468;11.200;2022-10-03T02:16:51;2.72;;;1.20;;
50056;SDS011;36875;49.468;11.200;2022-10-03T02:19:23;3.35;;;1.30;;
50056;SDS011;36875;49.468;11.200;2022-10-03T02:21:54;4.13;;;1.05;;
50056;SDS011;36875;49.468;11.200;2022-10-03T02:24:23;3.15;;;1.00;;
50056;SDS011;36875;49.468;11.200;2022-10-03T02:27:06;2.50;;;1.30;;
50056;SDS011;36875;49.468;11.200;2022-10-03T02:39:08;2.10;;;0.93;;
50056;SDS011;36875;49.468;11.200;2022-10-03T02:42:13;2.90;;;1.25;;
50056;SDS011;36875;49.468;11.200;2022-10-03T02:44:57;3.30;;;0.73;;
50056;SDS011;36875;49.468;11.200;2022-10-03T02:47:51;2.75;;;1.27;;
50056;SDS011;36875;49.468;11.200;2022-10-03T02:50:50;5.13;;;1.08;;
50056;SDS011;36875;49.468;11.200;2022-10-03T02:56:49;5.00;;;1.10;;
50056;SDS011;36875;49.468;11.200;2022-10-03T03:08:57;2.83;;;0.95;;
50056;SDS011;36875;49.468;11.200;2022-10-03T03:11:42;3.85;;;1.42;;
50056;SDS011;36875;49.468;11.200;2022-10-03T03:17:34;2.95;;;1.08;;
50056;SDS011;36875;49.468;11.200;2022-10-03T03:20:07;3.03;;;1.20;;
50056;SDS011;36875;49.468;11.200;2022-10-03T03:22:46;1.85;;;1.10;;
50056;SDS011;36875;49.468;11.200;2022-10-03T03:25:29;1.80;;;0.80;;
50056;SDS011;36875;49.468;11.200;2022-10-03T03:28:12;3.22;;;1.08;;
50056;SDS011;36875;49.468;11.200;2022-10-03T03:30:50;3.53;;;0.98;;
50056;SDS011;36875;49.468;11.200;2022-10-03T03:33:23;2.33;;;0.93;;
50056;SDS011;36875;49.468;11.200;2022-10-03T03:35:59;2.13;;;0.95;;
50056;SDS011;36875;49.468;11.200;2022-10-03T03:38:33;2.13;;;1.05;;
50056;SDS011;36875;49.468;11.200;2022-10-03T03:41:17;3.25;;;1.02;;
50056;SDS011;36875;49.468;11.200;2022-10-03T03:47:07;1.70;;;0.73;;
50056;SDS011;36875;49.468;11.200;2022-10-03T03:49:55;1.80;;;1.00;;
50056;SDS011;36875;49.468;11.200;2022-10-03T03:52:42;1.58;;;0.88;;
50056;SDS011;36875;49.468;11.200;2022-10-03T03:55:28;2.25;;;0.80;;
50056;SDS011;36875;49.468;11.200;2022-10-03T03:58:16;2.13;;;0.90;;
50056;SDS011;36875;49.468;11.200;2022-10-03T04:01:01;1.88;;;1.20;;
50056;SDS011;36875;49.468;11.200;2022-10-03T04:03:43;1.85;;;1.08;;
50056;SDS011;36875;49.468;11.200;2022-10-03T04:06:24;1.75;;;0.90;;
50056;SDS011;36875;49.468;11.200;2022-10-03T04:09:08;2.00;;;0.95;;
50056;SDS011;36875;49.468;11.200;2022-10-03T04:11:49;3.00;;;1.00;;
50056;SDS011;36875;49.468;11.200;2022-10-03T04:14:38;2.10;;;0.93;;
50056;SDS011;36875;49.468;11.200;2022-10-03T04:17:24;1.52;;;0.90;;
50056;SDS011;36875;49.468;11.200;2022-10-03T04:20:24;1.75;;;0.82;;
50056;SDS011;36875;49.468;11.200;2022-10-03T04:23:06;0.90;;;0.70;;
50056;SDS011;36875;49.468;11.200;2022-10-03T04:28:50;3.28;;;1.10;;
50056;SDS011;36875;49.468;11.200;2022-10-03T04:31:29;1.55;;;0.80;;
50056;SDS011;36875;49.468;11.200;2022-10-03T04:34:09;3.40;;;1.13;;
50056;SDS011;36875;49.468;11.200;2022-10-03T04:36:48;2.50;;;1.00;;
50056;SDS011;36875;49.468;11.200;2022-10-03T04:39:25;0.65;;;0.60;;
50056;SDS011;36875;49.468;11.200;2022-10-03T04:42:00;1.90;;;0.85;;
50056;SDS011;36875;49.468;11.200;2022-10-03T04:44:35;1.85;;;0.98;;
50056;SDS011;36875;49.468;11.200;2022-10-03T04:47:15;1.77;;;0.90;;
50056;SDS011;36875;49.468;11.200;2022-10-03T04:49:48;3.03;;;1.08;;
50056;SDS011;36875;49.468;11.200;2022-10-03T04:52:20;1.90;;;1.05;;
50056;SDS011;36875;49.468;11.200;2022-10-03T04:54:53;1.95;;;1.10;;
50056;SDS011;36875;49.468;11.200;2022-10-03T04:57:27;2.80;;;0.95;;
50056;SDS011;36875;49.468;11.200;2022-10-03T05:00:03;2.30;;;1.20;;
50056;SDS011;36875;49.468;11.200;2022-10-03T05:02:41;1.63;;;0.80;;
50056;SDS011;36875;49.468;11.200;2022-10-03T05:05:38;1.45;;;0.90;;
50056;SDS011;36875;49.468;11.200;2022-10-03T05:08:13;2.83;;;0.80;;
50056;SDS011;36875;49.468;11.200;2022-10-03T05:10:59;2.70;;;0.75;;
50056;SDS011;36875;49.468;11.200;2022-10-03T05:13:35;2.28;;;1.00;;
50056;SDS011;36875;49.468;11.200;2022-10-03T05:16:18;2.15;;;1.00;;
50056;SDS011;36875;49.468;11.200;2022-10-03T05:18:54;2.10;;;0.90;;
50056;SDS011;36875;49.468;11.200;2022-10-03T05:21:29;1.63;;;1.05;;
50056;SDS011;36875;49.468;11.200;2022-10-03T05:24:02;1.58;;;0.80;;
50056;SDS011;36875;49.468;11.200;2022-10-03T05:26:40;2.50;;;1.30;;
50056;SDS011;36875;49.468;11.200;2022-10-03T05:29:14;2.05;;;1.30;;
50056;SDS011;36875;49.468;11.200;2022-10-03T05:31:45;2.72;;;1.10;;
50056;SDS011;36875;49.468;11.200;2022-10-03T05:34:21;1.38;;;0.90;;
50056;SDS011;36875;49.468;11.200;2022-10-03T05:37:03;1.90;;;1.10;;
50056;SDS011;36875;49.468;11.200;2022-10-03T05:39:51;3.60;;;1.38;;
50056;SDS011;36875;49.468;11.200;2022-10-03T05:42:34;5.47;;;1.40;;
50056;SDS011;36875;49.468;11.200;2022-10-03T05:45:16;6.82;;;1.80;;
50056;SDS011;36875;49.468;11.200;2022-10-03T05:47:50;4.00;;;2.00;;
50056;SDS011;36875;49.468;11.200;2022-10-03T05:50:32;4.60;;;2.00;;
50056;SDS011;36875;49.468;11.200;2022-10-03T05:53:24;6.22;;;1.90;;
50056;SDS011;36875;49.468;11.200;2022-10-03T05:56:04;5.97;;;2.08;;
50056;SDS011;36875;49.468;11.200;2022-10-03T06:01:54;9.13;;;2.13;;
50056;SDS011;36875;49.468;11.200;2022-10-03T06:05:00;3.25;;;1.60;;
50056;SDS011;36875;49.468;11.200;2022-10-03T06:07:40;3.92;;;1.58;;
50056;SDS011;36875;49.468;11.200;2022-10-03T06:13:12;4.32;;;1.88;;
50056;SDS011;36875;49.468;11.200;2022-10-03T06:15:46;4.10;;;1.80;;
50056;SDS011;36875;49.468;11.200;2022-10-03T06:21:28;6.40;;;1.88;;
50056;SDS011;36875;49.468;11.200;2022-10-03T06:24:14;3.30;;;1.67;;
50056;SDS011;36875;49.468;11.200;2022-10-03T06:27:14;9.38;;;2.42;;
50056;SDS011;36875;49.468;11.200;2022-10-03T06:30:11;3.60;;;2.00;;
50056;SDS011;36875;49.468;11.200;2022-10-03T06:36:11;4.93;;;1.80;;
50056;SDS011;36875;49.468;11.200;2022-10-03T06:42:30;6.75;;;1.50;;
50056;SDS011;36875;49.468;11.200;2022-10-03T06:48:23;5.85;;;1.70;;
50056;SDS011;36875;49.468;11.200;2022-10-03T06:54:05;6.18;;;1.90;;
50056;SDS011;36875;49.468;11.200;2022-10-03T06:57:04;5.43;;;1.42;;
50056;SDS011;36875;49.468;11.200;2022-10-03T06:59:47;4.68;;;1.73;;
50056;SDS011;36875;49.468;11.200;2022-10-03T07:02:40;6.85;;;1.55;;
50056;SDS011;36875;49.468;11.200;2022-10-03T07:08:40;3.92;;;1.80;;
50056;SDS011;36875;49.468;11.200;2022-10-03T07:11:42;10.02;;;1.80;;
50056;SDS011;36875;49.468;11.200;2022-10-03T07:14:45;8.18;;;1.60;;
50056;SDS011;36875;49.468;11.200;2022-10-03T07:17:51;10.70;;;2.10;;
50056;SDS011;36875;49.468;11.200;2022-10-03T07:20:37;10.93;;;2.00;;
50056;SDS011;36875;49.468;11.200;2022-10-03T07:23:39;9.68;;;1.80;;
50056;SDS011;36875;49.468;11.200;2022-10-03T07:26:29;11.15;;;1.77;;
50056;SDS011;36875;49.468;11.200;2022-10-03T07:29:20;11.75;;;1.67;;
50056;SDS011;36875;49.468;11.200;2022-10-03T07:31:58;8.15;;;1.77;;
50056;SDS011;36875;49.468;11.200;2022-10-03T07:38:02;9.48;;;1.70;;
50056;SDS011;36875;49.468;11.200;2022-10-03T07:44:08;10.77;;;2.05;;
50056;SDS011;36875;49.468;11.200;2022-10-03T07:47:06;10.55;;;1.70;;
50056;SDS011;36875;49.468;11.200;2022-10-03T07:50:13;7.80;;;1.85;;
50056;SDS011;36875;49.468;11.200;2022-10-03T07:53:08;9.73;;;1.92;;
50056;SDS011;36875;49.468;11.200;2022-10-03T07:55:49;5.15;;;1.40;;
50056;SDS011;36875;49.468;11.200;2022-10-03T07:58:27;9.88;;;2.20;;
50056;SDS011;36875;49.468;11.200;2022-10-03T08:01:11;8.85;;;1.52;;
50056;SDS011;36875;49.468;11.200;2022-10-03T08:04:01;5.65;;;1.55;;
50056;SDS011;36875;49.468;11.200;2022-10-03T08:06:45;8.00;;;1.90;;
50056;SDS011;36875;49.468;11.200;2022-10-03T08:12:24;5.85;;;1.55;;
50056;SDS011;36875;49.468;11.200;2022-10-03T08:15:21;7.95;;;1.52;;
50056;SDS011;36875;49.468;11.200;2022-10-03T08:20:55;5.82;;;1.50;;
50056;SDS011;36875;49.468;11.200;2022-10-03T08:23:41;9.98;;;2.38;;
50056;SDS011;36875;49.468;11.200;2022-10-03T08:26:34;6.63;;;1.60;;
50056;SDS011;36875;49.468;11.200;2022-10-03T08:32:29;8.45;;;1.50;;
50056;SDS011;36875;49.468;11.200;2022-10-03T08:35:43;13.68;;;1.88;;
50056;SDS011;36875;49.468;11.200;2022-10-03T08:38:47;10.85;;;1.63;;
50056;SDS011;36875;49.468;11.200;2022-10-03T08:41:28;4.93;;;2.13;;
50056;SDS011;36875;49.468;11.200;2022-10-03T08:47:33;10.57;;;1.73;;
50056;SDS011;36875;49.468;11.200;2022-10-03T08:56:02;8.27;;;1.80;;
50056;SDS011;36875;49.468;11.200;2022-10-03T09:16:16;10.98;;;2.22;;
50056;SDS011;36875;49.468;11.200;2022-10-03T09:19:02;11.98;;;2.20;;
50056;SDS011;36875;49.468;11.200;2022-10-03T09:21:45;12.35;;;2.30;;
50056;SDS011;36875;49.468;11.200;2022-10-03T09:30:39;11.63;;;2.40;;
50056;SDS011;36875;49.468;11.200;2022-10-03T09:33:35;13.45;;;2.00;;
50056;SDS011;36875;49.468;11.200;2022-10-03T09:36:33;7.00;;;1.63;;
50056;SDS011;36875;49.468;11.200;2022-10-03T09:39:38;10.80;;;2.13;;
50056;SDS011;36875;49.468;11.200;2022-10-03T09:42:29;9.70;;;1.90;;
50056;SDS011;36875;49.468;11.200;2022-10-03T09:45:15;8.20;;;1.80;;
50056;SDS011;36875;49.468;11.200;2022-10-03T09:48:11;12.20;;;2.20;;
50056;SDS011;36875;49.468;11.200;2022-10-03T09:50:55;7.78;;;1.80;;
50056;SDS011;36875;49.468;11.200;2022-10-03T09:53:34;12.98;;;1.98;;
50056;SDS011;36875;49.468;11.200;2022-10-03T09:56:27;6.65;;;1.95;;
50056;SDS011;36875;49.468;11.200;2022-10-03T09:59:11;12.70;;;2.08;;
50056;SDS011;36875;49.468;11.200;2022-10-03T10:04:45;11.10;;;2.42;;
50056;SDS011;36875;49.468;11.200;2022-10-03T10:19:53;10.10;;;2.08;;
50056;SDS011;36875;49.468;11.200;2022-10-03T10:25:37;7.38;;;1.80;;
50056;SDS011;36875;49.468;11.200;2022-10-03T10:31:52;10.18;;;1.60;;
50056;SDS011;36875;49.468;11.200;2022-10-03T10:34:46;10.45;;;1.75;;
50056;SDS011;36875;49.468;11.200;2022-10-03T10:49:38;4.68;;;1.67;;
50056;SDS011;36875;49.468;11.200;2022-10-03T11:02:01;9.70;;;1.85;;
50056;SDS011;36875;49.468;11.200;2022-10-03T11:05:01;7.70;;;2.70;;
50056;SDS011;36875;49.468;11.200;2022-10-03T11:08:06;5.05;;;1.25;;
50056;SDS011;36875;49.468;11.200;2022-10-03T11:11:00;5.90;;;1.48;;
50056;SDS011;36875;49.468;11.200;2022-10-03T11:19:50;5.20;;;1.48;;
50056;SDS011;36875;49.468;11.200;2022-10-03T11:22:55;7.20;;;1.60;;
50056;SDS011;36875;49.468;11.200;2022-10-03T11:25:51;6.22;;;1.60;;
50056;SDS011;36875;49.468;11.200;2022-10-03T11:28:45;8.50;;;1.80;;
50056;SDS011;36875;49.468;11.200;2022-10-03T11:31:45;7.57;;;1.50;;
50056;SDS011;36875;49.468;11.200;2022-10-03T11:37:49;5.35;;;1.30;;
50056;SDS011;36875;49.468;11.200;2022-10-03T11:40:24;4.95;;;1.55;;
50056;SDS011;36875;49.468;11.200;2022-10-03T11:43:01;9.70;;;1.85;;
50056;SDS011;36875;49.468;11.200;2022-10-03T11:45:45;9.45;;;1.48;;
50056;SDS011;36875;49.468;11.200;2022-10-03T11:48:28;8.93;;;1.38;;
50056;SDS011;36875;49.468;11.200;2022-10-03T11:51:05;9.93;;;1.70;;
50056;SDS011;36875;49.468;11.200;2022-10-03T11:53:42;6.28;;;1.20;;
50056;SDS011;36875;49.468;11.200;2022-10-03T11:59:09;3.92;;;1.38;;
50056;SDS011;36875;49.468;11.200;2022-10-03T12:02:13;5.22;;;1.08;;
50056;SDS011;36875;49.468;11.200;2022-10-03T12:04:50;5.18;;;1.10;;
50056;SDS011;36875;49.468;11.200;2022-10-03T12:07:41;5.45;;;1.10;;
50056;SDS011;36875;49.468;11.200;2022-10-03T12:10:39;7.95;;;1.30;;
50056;SDS011;36875;49.468;11.200;2022-10-03T12:13:12;7.35;;;1.40;;
50056;SDS011;36875;49.468;11.200;2022-10-03T12:15:41;9.13;;;1.42;;
50056;SDS011;36875;49.468;11.200;2022-10-03T12:18:12;5.88;;;1.40;;
50056;SDS011;36875;49.468;11.200;2022-10-03T12:26:28;9.18;;;1.50;;
50056;SDS011;36875;49.468;11.200;2022-10-03T12:29:09;11.52;;;1.38;;
50056;SDS011;36875;49.468;11.200;2022-10-03T12:31:38;9.35;;;1.48;;
50056;SDS011;36875;49.468;11.200;2022-10-03T12:34:18;5.88;;;1.10;;
50056;SDS011;36875;49.468;11.200;2022-10-03T12:36:56;7.03;;;1.63;;
50056;SDS011;36875;49.468;11.200;2022-10-03T12:39:37;5.30;;;1.40;;
50056;SDS011;36875;49.468;11.200;2022-10-03T12:42:18;7.18;;;1.70;;
50056;SDS011;36875;49.468;11.200;2022-10-03T12:44:51;8.20;;;1.38;;
50056;SDS011;36875;49.468;11.200;2022-10-03T12:50:16;7.45;;;1.30;;
50056;SDS011;36875;49.468;11.200;2022-10-03T12:52:54;6.03;;;1.40;;
50056;SDS011;36875;49.468;11.200;2022-10-03T12:55:28;4.18;;;1.10;;
50056;SDS011;36875;49.468;11.200;2022-10-03T12:58:00;3.33;;;1.30;;
50056;SDS011;36875;49.468;11.200;2022-10-03T13:00:35;5.45;;;1.42;;
50056;SDS011;36875;49.468;11.200;2022-10-03T13:03:16;3.78;;;1.20;;
50056;SDS011;36875;49.468;11.200;2022-10-03T13:08:59;5.50;;;1.50;;
50056;SDS011;36875;49.468;11.200;2022-10-03T13:11:42;7.20;;;1.45;;
50056;SDS011;36875;49.468;11.200;2022-10-03T13:14:24;4.70;;;1.20;;
50056;SDS011;36875;49.468;11.200;2022-10-03T13:16:57;7.60;;;1.40;;
50056;SDS011;36875;49.468;11.200;2022-10-03T13:19:29;7.88;;;1.98;;
50056;SDS011;36875;49.468;11.200;2022-10-03T13:22:24;3.75;;;1.25;;
50056;SDS011;36875;49.468;11.200;2022-10-03T13:24:59;3.60;;;1.17;;
50056;SDS011;36875;49.468;11.200;2022-10-03T13:27:30;8.05;;;1.73;;
50056;SDS011;36875;49.468;11.200;2022-10-03T13:30:06;6.95;;;1.30;;
50056;SDS011;36875;49.468;11.200;2022-10-03T13:32:41;6.65;;;1.30;;
50056;SDS011;36875;49.468;11.200;2022-10-03T13:35:17;5.78;;;1.30;;
50056;SDS011;36875;49.468;11.200;2022-10-03T13:41:13;3.42;;;1.00;;
50056;SDS011;36875;49.468;11.200;2022-10-03T13:43:50;4.47;;;1.17;;
50056;SDS011;36875;49.468;11.200;2022-10-03T13:46:25;5.20;;;1.55;;
50056;SDS011;36875;49.468;11.200;2022-10-03T13:48:56;5.32;;;1.15;;
50056;SDS011;36875;49.468;11.200;2022-10-03T13:51:27;4.82;;;1.35;;
50056;SDS011;36875;49.468;11.200;2022-10-03T13:54:01;3.25;;;1.23;;
50056;SDS011;36875;49.468;11.200;2022-10-03T13:56:42;5.70;;;1.30;;
50056;SDS011;36875;49.468;11.200;2022-10-03T13:59:20;5.15;;;1.50;;
50056;SDS011;36875;49.468;11.200;2022-10-03T14:01:59;5.93;;;1.20;;
50056;SDS011;36875;49.468;11.200;2022-10-03T14:04:37;2.70;;;1.00;;
50056;SDS011;36875;49.468;11.200;2022-10-03T14:07:14;3.78;;;1.20;;
50056;SDS011;36875;49.468;11.200;2022-10-03T14:09:54;4.70;;;1.13;;
50056;SDS011;36875;49.468;11.200;2022-10-03T14:12:36;4.85;;;0.90;;
50056;SDS011;36875;49.468;11.200;2022-10-03T14:15:19;4.43;;;1.10;;
50056;SDS011;36875;49.468;11.200;2022-10-03T14:17:59;4.03;;;1.20;;
50056;SDS011;36875;49.468;11.200;2022-10-03T14:20:37;4.63;;;1.15;;
50056;SDS011;36875;49.468;11.200;2022-10-03T14:23:25;6.82;;;1.23;;
50056;SDS011;36875;49.468;11.200;2022-10-03T14:25:58;3.05;;;1.10;;
50056;SDS011;36875;49.468;11.200;2022-10-03T14:28:33;3.60;;;1.00;;
50056;SDS011;36875;49.468;11.200;2022-10-03T14:31:06;4.53;;;1.27;;
50056;SDS011;36875;49.468;11.200;2022-10-03T14:33:42;5.38;;;1.52;;
50056;SDS011;36875;49.468;11.200;2022-10-03T14:36:17;3.85;;;1.00;;
50056;SDS011;36875;49.468;11.200;2022-10-03T14:38:57;2.87;;;1.03;;
50056;SDS011;36875;49.468;11.200;2022-10-03T14:41:41;5.35;;;1.15;;
50056;SDS011;36875;49.468;11.200;2022-10-03T14:44:11;2.10;;;1.10;;
50056;SDS011;36875;49.468;11.200;2022-10-03T14:46:42;4.75;;;1.10;;
50056;SDS011;36875;49.468;11.200;2022-10-03T14:49:18;4.88;;;1.40;;
50056;SDS011;36875;49.468;11.200;2022-10-03T14:51:48;5.13;;;1.20;;
50056;SDS011;36875;49.468;11.200;2022-10-03T14:54:20;4.28;;;0.98;;
50056;SDS011;36875;49.468;11.200;2022-10-03T14:56:48;9.55;;;1.27;;
50056;SDS011;36875;49.468;11.200;2022-10-03T14:59:18;8.53;;;1.23;;
50056;SDS011;36875;49.468;11.200;2022-10-03T15:01:50;6.57;;;1.20;;
50056;SDS011;36875;49.468;11.200;2022-10-03T15:04:27;6.13;;;1.20;;
50056;SDS011;36875;49.468;11.200;2022-10-03T15:06:56;7.68;;;1.33;;
50056;SDS011;36875;49.468;11.200;2022-10-03T15:09:27;5.18;;;1.27;;
50056;SDS011;36875;49.468;11.200;2022-10-03T15:11:59;4.10;;;1.15;;
50056;SDS011;36875;49.468;11.200;2022-10-03T15:14:29;12.40;;;1.70;;
50056;SDS011;36875;49.468;11.200;2022-10-03T15:16:58;11.20;;;1.83;;
50056;SDS011;36875;49.468;11.200;2022-10-03T15:19:31;11.20;;;1.83;;
50056;SDS011;36875;49.468;11.200;2022-10-03T15:22:04;20.02;;;1.58;;
50056;SDS011;36875;49.468;11.200;2022-10-03T15:24:40;16.85;;;2.63;;
50056;SDS011;36875;49.468;11.200;2022-10-03T15:27:07;12.10;;;1.90;;
50056;SDS011;36875;49.468;11.200;2022-10-03T15:29:36;13.63;;;1.95;;
50056;SDS011;36875;49.468;11.200;2022-10-03T15:32:03;8.32;;;1.50;;
50056;SDS011;36875;49.468;11.200;2022-10-03T15:34:42;8.95;;;2.13;;
50056;SDS011;36875;49.468;11.200;2022-10-03T15:37:14;10.07;;;1.85;;
50056;SDS011;36875;49.468;11.200;2022-10-03T15:39:42;13.80;;;1.77;;
50056;SDS011;36875;49.468;11.200;2022-10-03T15:42:18;8.48;;;1.50;;
50056;SDS011;36875;49.468;11.200;2022-10-03T15:44:48;21.65;;;3.03;;
50056;SDS011;36875;49.468;11.200;2022-10-03T15:47:17;10.82;;;2.40;;
50056;SDS011;36875;49.468;11.200;2022-10-03T15:49:47;13.65;;;3.08;;
50056;SDS011;36875;49.468;11.200;2022-10-03T15:52:19;16.60;;;3.30;;
50056;SDS011;36875;49.468;11.200;2022-10-03T15:54:49;15.57;;;3.15;;
50056;SDS011;36875;49.468;11.200;2022-10-03T15:57:20;14.57;;;3.25;;
50056;SDS011;36875;49.468;11.200;2022-10-03T15:59:59;13.55;;;3.00;;
50056;SDS011;36875;49.468;11.200;2022-10-03T16:02:26;14.07;;;3.95;;
50056;SDS011;36875;49.468;11.200;2022-10-03T16:04:59;14.75;;;3.30;;
50056;SDS011;36875;49.468;11.200;2022-10-03T16:07:32;20.65;;;4.18;;
50056;SDS011;36875;49.468;11.200;2022-10-03T16:10:10;15.35;;;4.75;;
50056;SDS011;36875;49.468;11.200;2022-10-03T16:12:47;20.15;;;5.45;;
50056;SDS011;36875;49.468;11.200;2022-10-03T16:15:21;15.85;;;4.70;;
50056;SDS011;36875;49.468;11.200;2022-10-03T16:17:53;17.05;;;4.30;;
50056;SDS011;36875;49.468;11.200;2022-10-03T16:20:23;19.35;;;4.45;;
50056;SDS011;36875;49.468;11.200;2022-10-03T16:22:52;21.88;;;5.03;;
50056;SDS011;36875;49.468;11.200;2022-10-03T16:25:20;18.20;;;4.30;;
50056;SDS011;36875;49.468;11.200;2022-10-03T16:27:50;12.43;;;3.97;;
50056;SDS011;36875;49.468;11.200;2022-10-03T16:30:20;13.77;;;3.75;;
50056;SDS011;36875;49.468;11.200;2022-10-03T16:32:49;16.55;;;3.13;;
50056;SDS011;36875;49.468;11.200;2022-10-03T16:35:28;15.23;;;3.70;;
50056;SDS011;36875;49.468;11.200;2022-10-03T16:37:57;15.80;;;3.50;;
50056;SDS011;36875;49.468;11.200;2022-10-03T16:40:24;13.02;;;3.03;;
50056;SDS011;36875;49.468;11.200;2022-10-03T16:42:51;17.63;;;3.63;;
50056;SDS011;36875;49.468;11.200;2022-10-03T16:45:23;17.40;;;3.10;;
50056;SDS011;36875;49.468;11.200;2022-10-03T16:47:50;15.65;;;4.03;;
50056;SDS011;36875;49.468;11.200;2022-10-03T16:50:40;15.85;;;3.83;;
50056;SDS011;36875;49.468;11.200;2022-10-03T16:53:10;16.15;;;3.75;;
50056;SDS011;36875;49.468;11.200;2022-10-03T16:55:38;16.30;;;3.95;;
50056;SDS011;36875;49.468;11.200;2022-10-03T16:58:10;16.60;;;3.95;;
50056;SDS011;36875;49.468;11.200;2022-10-03T17:00:43;15.77;;;3.60;;
50056;SDS011;36875;49.468;11.200;2022-10-03T17:03:18;13.80;;;3.35;;
50056;SDS011;36875;49.468;11.200;2022-10-03T17:05:47;17.70;;;3.80;;
50056;SDS011;36875;49.468;11.200;2022-10-03T17:10:44;15.90;;;2.80;;
50056;SDS011;36875;49.468;11.200;2022-10-03T17:13:17;15.93;;;3.08;;
50056;SDS011;36875;49.468;11.200;2022-10-03T17:15:48;9.68;;;3.05;;
50056;SDS011;36875;49.468;11.200;2022-10-03T17:18:20;17.80;;;3.55;;
50056;SDS011;36875;49.468;11.200;2022-10-03T17:20:52;15.05;;;4.00;;
50056;SDS011;36875;49.468;11.200;2022-10-03T17:23:23;12.40;;;2.55;;
50056;SDS011;36875;49.468;11.200;2022-10-03T17:26:04;12.75;;;3.20;;
50056;SDS011;36875;49.468;11.200;2022-10-03T17:28:36;14.77;;;2.95;;
50056;SDS011;36875;49.468;11.200;2022-10-03T17:31:06;15.50;;;2.55;;
50056;SDS011;36875;49.468;11.200;2022-10-03T17:33:48;15.85;;;3.00;;
50056;SDS011;36875;49.468;11.200;2022-10-03T17:36:32;15.57;;;3.00;;
50056;SDS011;36875;49.468;11.200;2022-10-03T17:39:10;14.18;;;3.40;;
50056;SDS011;36875;49.468;11.200;2022-10-03T17:41:48;14.25;;;2.95;;
50056;SDS011;36875;49.468;11.200;2022-10-03T17:44:18;14.27;;;2.50;;
50056;SDS011;36875;49.468;11.200;2022-10-03T17:46:55;12.95;;;2.40;;
50056;SDS011;36875;49.468;11.200;2022-10-03T17:49:28;10.25;;;2.63;;
50056;SDS011;36875;49.468;11.200;2022-10-03T17:52:12;10.75;;;2.78;;
50056;SDS011;36875;49.468;11.200;2022-10-03T17:54:43;11.55;;;2.80;;
50056;SDS011;36875;49.468;11.200;2022-10-03T17:57:12;11.10;;;3.22;;
50056;SDS011;36875;49.468;11.200;2022-10-03T17:59:42;11.30;;;2.38;;
50056;SDS011;36875;49.468;11.200;2022-10-03T18:02:15;13.75;;;3.03;;
50056;SDS011;36875;49.468;11.200;2022-10-03T18:04:45;11.73;;;2.88;;
50056;SDS011;36875;49.468;11.200;2022-10-03T18:07:20;12.00;;;2.95;;
50056;SDS011;36875;49.468;11.200;2022-10-03T18:09:48;11.80;;;2.70;;
50056;SDS011;36875;49.468;11.200;2022-10-03T18:12:21;14.55;;;2.90;;
50056;SDS011;36875;49.468;11.200;2022-10-03T18:17:48;8.82;;;2.22;;
50056;SDS011;36875;49.468;11.200;2022-10-03T18:20:41;9.05;;;2.40;;
50056;SDS011;36875;49.468;11.200;2022-10-03T18:23:16;7.45;;;2.20;;
50056;SDS011;36875;49.468;11.200;2022-10-03T18:25:49;9.63;;;2.10;;
50056;SDS011;36875;49.468;11.200;2022-10-03T18:28:23;8.60;;;2.40;;
50056;SDS011;36875;49.468;11.200;2022-10-03T18:30:54;9.73;;;2.35;;
50056;SDS011;36875;49.468;11.200;2022-10-03T18:33:23;11.00;;;2.88;;
50056;SDS011;36875;49.468;11.200;2022-10-03T18:35:55;11.00;;;2.20;;
50056;SDS011;36875;49.468;11.200;2022-10-03T18:38:24;8.45;;;2.60;;
50056;SDS011;36875;49.468;11.200;2022-10-03T18:40:53;9.95;;;2.20;;
50056;SDS011;36875;49.468;11.200;2022-10-03T18:43:25;10.90;;;2.30;;
50056;SDS011;36875;49.468;11.200;2022-10-03T18:45:55;7.32;;;1.92;;
50056;SDS011;36875;49.468;11.200;2022-10-03T18:48:28;7.90;;;2.33;;
50056;SDS011;36875;49.468;11.200;2022-10-03T18:51:02;9.25;;;2.20;;
50056;SDS011;36875;49.468;11.200;2022-10-03T18:53:38;7.97;;;2.10;;